Latest Weather Observations for Moomba Airport

IDS60801

Issued at 10:05 pm CST Tuesday 29 July 2014 (issued every 30 minutes, with the page automatically refreshed every 10 minutes)

About weather observations | Map of weather stations | Latest weather observations for SA | Other Formats
Station Details ID: 017123 Name: MOOMBA AIRPORT Lat: -28.10 Lon: 140.20 Height: 37.8 m
Data from the previous 72 hours. | See also: Recent months at Moomba Airport
Date/Time
CST
Temp
°C
App
Temp
°C
Dew
Point
Rel
Hum
%
Delta-T
°C
Wind Press
QNH
hPa
Press
MSL
hPa
Rain
since 9 am
mm
Dir
 
Spd
km/h
Gust
km/h
Spd
kts
Gust
kts
29/10:00pm 12.9 10.3 -5.1 28 6.6 W 0 0 0 0 1022.4 - 0.0
29/09:30pm 13.7 10.3 -4.9 27 6.9 SW 4 6 2 3 1022.3 1022.4 0.0
29/09:00pm 14.0 10.2 -5.7 25 7.2 WSW 6 7 3 4 1022.4 1022.5 0.0
29/08:30pm 16.2 12.5 -3.3 26 7.7 SSW 7 9 4 5 1022.1 1022.2 0.0
29/08:00pm 16.8 13.6 -3.3 25 8.1 SW 4 6 2 3 1021.8 - 0.0
29/07:30pm 17.8 14.3 -2.5 25 8.3 SSW 6 7 3 4 1021.7 1021.8 0.0
29/07:00pm 18.4 14.7 -2.5 24 8.7 SSW 7 9 4 5 1021.6 - 0.0
29/06:30pm 19.2 15.5 -3.0 22 9.1 SW 7 9 4 5 1021.3 1021.4 0.0
29/06:00pm 21.0 16.9 -2.8 20 10.0 WSW 9 9 5 5 1021.0 1021.1 0.0
29/05:30pm 23.0 19.0 -2.6 18 11.0 SW 9 13 5 7 1020.6 1020.6 0.0
29/05:00pm 23.9 20.0 -1.8 18 11.3 SSW 9 13 5 7 1020.4 - 0.0
29/04:30pm 24.6 20.3 -2.0 17 11.7 SW 11 17 6 9 1020.2 1020.2 0.0
29/04:00pm 24.8 20.8 -1.9 17 11.9 SSW 9 19 5 10 1020.0 - 0.0
29/03:30pm 24.5 20.5 -2.1 17 11.7 S 9 15 5 8 1020.0 1020.0 0.0
29/03:00pm 25.0 21.6 -1.7 17 11.9 SSW 6 15 3 8 1020.0 1020.0 0.0
29/02:30pm 24.5 21.1 -2.1 17 11.7 SW 6 15 3 8 1020.1 - 0.0
29/02:00pm 24.6 20.0 -1.3 18 11.6 WSW 13 19 7 10 1020.3 - 0.0
29/01:30pm 24.2 19.5 -1.6 18 11.5 SW 13 20 7 11 1020.6 - 0.0
29/01:00pm 24.1 20.2 -1.7 18 11.4 WSW 9 17 5 9 1021.0 - 0.0
29/12:30pm 24.1 20.5 -2.4 17 11.6 WSW 7 13 4 7 1021.5 - 0.0
29/12:00pm 23.6 19.3 -4.5 15 11.7 WNW 9 15 5 8 1022.0 1022.1 0.0
29/11:30am 22.8 18.4 -6.1 14 11.6 W 9 13 5 7 1022.5 - 0.0
29/11:00am 22.6 17.8 -6.2 14 11.5 NW 11 17 6 9 1022.7 - 0.0
29/10:30am 21.3 16.0 -11.5 10 11.7 NW 11 15 6 8 1023.0 - 0.0
29/10:00am 20.3 15.5 -11.1 11 11.1 NNW 9 13 5 7 1023.1 - 0.0
29/09:30am 18.5 13.8 -8.6 15 9.9 NNW 9 13 5 7 1023.2 - 0.0
29/09:00am 15.6 11.3 -9.3 17 8.6 NNE 7 9 4 5 1023.0 1023.1 0.0
29/08:30am 14.2 10.2 -7.8 21 7.8 N 6 9 3 5 1023.1 - 0.0
29/08:00am 9.8 6.1 -8.3 27 6.0 WNW 4 15 2 8 1023.0 - 0.0
29/07:30am 7.5 3.4 -9.4 29 5.2 NNW 6 7 3 4 1022.6 - 0.0
29/07:00am 5.6 0.8 -10.2 31 4.7 NNE 9 11 5 6 1022.2 - 0.0
29/06:30am 4.7 -0.2 -11.8 29 4.6 ENE 9 11 5 6 1022.1 - 0.0
29/06:00am 7.5 2.9 -8.1 32 5.0 N 9 13 5 7 1021.7 1021.8 0.0
29/05:30am 7.2 2.9 -8.8 31 5.0 NNE 7 11 4 6 1021.3 - 0.0
29/05:00am 7.7 3.1 -7.9 32 5.0 N 9 11 5 6 1021.1 - 0.0
29/04:30am 7.4 3.1 -8.6 31 5.1 N 7 9 4 5 1021.1 - 0.0
29/04:00am 7.6 3.5 -8.4 31 5.1 N 6 11 3 6 1021.1 - 0.0
29/03:30am 7.0 1.9 -9.4 30 5.1 N 11 13 6 7 1021.0 - 0.0
29/03:00am 7.5 4.5 -8.9 30 5.1 CALM 0 0 0 0 1020.9 1021.0 0.0
29/02:30am 7.4 4.4 -9.4 29 5.2 CALM 0 0 0 0 1020.9 - 0.0
29/02:00am 7.9 5.0 -8.6 30 5.3 CALM 0 0 0 0 1021.0 - 0.0
29/01:30am 7.9 4.9 -9.0 29 5.3 CALM 0 0 0 0 1021.1 - 0.0
29/01:00am 8.8 5.4 -9.1 27 5.7 W 2 6 1 3 1021.2 - 0.0
29/12:30am 9.5 5.8 -8.1 28 5.8 N 4 6 2 3 1021.2 - 0.0
29/12:00am 8.8 4.5 -9.1 27 5.7 NNE 7 7 4 4 1021.1 1021.2 0.0
 
Date/Time
CST
Temp
°C
App
Temp
°C
Dew
Point
Rel
Hum
%
Delta-T
°C
Wind Press
QNH
hPa
Press
MSL
hPa
Rain
since 9 am
mm
Dir
 
Spd
km/h
Gust
km/h
Spd
kts
Gust
kts
28/11:30pm 10.8 6.9 -6.5 29 6.0 NE 6 7 3 4 1021.1 - 0.0
28/11:00pm 11.1 7.0 -6.7 28 6.2 NE 7 7 4 4 1021.1 - 0.0
28/10:30pm 11.9 7.9 -6.0 28 6.4 ENE 7 7 4 4 1021.1 - 0.0
28/10:00pm 12.4 8.6 -5.6 28 6.5 NE 6 6 3 3 1021.2 - 0.0
28/09:30pm 12.0 8.9 -6.4 27 6.5 SE 2 7 1 4 1021.2 - 0.0
28/09:00pm 13.0 10.3 -5.5 27 6.7 CALM 0 0 0 0 1021.2 1021.3 0.0
28/08:30pm 13.6 10.2 -5.5 26 7.0 S 4 9 2 5 1021.1 - 0.0
28/08:00pm 14.2 11.5 -6.1 24 7.4 CALM 0 0 0 0 1020.9 - 0.0
28/07:30pm 15.4 12.7 -6.2 22 8.0 CALM 0 0 0 0 1020.6 - 0.0
28/07:00pm 15.9 13.3 -5.2 23 8.0 CALM 0 0 0 0 1020.4 - 0.0
28/06:30pm 16.9 12.8 -6.2 20 8.7 SW 7 7 4 4 1020.2 - 0.0
28/06:00pm 18.8 15.0 -6.0 18 9.6 SSW 6 7 3 4 1020.0 1020.1 0.0
28/05:30pm 20.7 16.7 -5.2 17 10.4 SW 7 9 4 5 1019.9 - 0.0
28/05:00pm 22.0 17.7 -4.9 16 11.0 SW 9 11 5 6 1019.7 - 0.0
28/04:30pm 22.7 18.4 -4.4 16 11.3 SW 9 13 5 7 1019.7 - 0.0
28/04:00pm 22.8 18.1 -5.2 15 11.5 SW 11 13 6 7 1019.6 - 0.0
28/03:30pm 23.0 18.7 -5.0 15 11.5 W 9 17 5 9 1019.7 - 0.0
28/03:00pm 22.8 18.9 -4.3 16 11.3 W 7 13 4 7 1019.7 1019.8 0.0
28/02:30pm 23.1 19.4 -3.3 17 11.2 WSW 7 17 4 9 1019.9 - 0.0
28/02:00pm 23.4 18.9 -3.0 17 11.3 NNW 11 19 6 10 1020.2 - 0.0
28/01:30pm 22.0 17.1 -3.4 18 10.7 W 13 20 7 11 1020.7 - 0.0
28/01:00pm 22.1 18.4 -3.3 18 10.7 WNW 7 15 4 8 1021.3 - 0.0
28/12:30pm 21.7 17.2 -2.9 19 10.4 W 11 17 6 9 1021.9 - 0.0
28/12:00pm 21.6 17.9 -3.0 19 10.4 NNW 7 13 4 7 1022.3 1022.4 0.0
28/11:30am 21.3 17.3 -5.5 16 10.7 NNW 7 15 4 8 1022.8 - 0.0
28/11:00am 20.6 16.3 -4.5 18 10.2 N 9 13 5 7 1023.4 - 0.0
28/10:30am 19.3 15.1 -4.2 20 9.5 N 9 15 5 8 1023.8 - 0.0
28/10:00am 17.9 14.0 -4.7 21 8.9 N 7 11 4 6 1023.9 - 0.0
28/09:30am 16.3 12.5 -5.4 22 8.3 NNE 6 7 3 4 1024.1 - 0.0
28/09:00am 13.8 10.9 -3.9 29 6.7 ENE 2 6 1 3 1024.1 1024.2 0.0
28/08:30am 9.9 7.3 -4.8 35 5.3 CALM 0 0 0 0 1023.9 - 0.0
28/08:00am 8.5 5.0 -6.1 35 5.0 ENE 4 7 2 4 1023.5 - 0.0
28/07:30am 6.2 2.2 -5.7 42 4.0 ENE 7 9 4 5 1023.2 - 0.0
28/07:00am 5.2 2.2 -4.9 48 3.4 ENE 2 7 1 4 1022.8 - 0.0
28/06:30am 4.4 1.7 -5.9 47 3.3 CALM 0 0 0 0 1022.7 - 0.0
28/06:00am 4.3 1.5 -6.9 44 3.5 CALM 0 0 0 0 1022.4 1022.5 0.0
28/05:30am 4.2 1.3 -7.5 42 3.6 CALM 0 0 0 0 1022.3 - 0.0
28/05:00am 4.6 1.0 -7.2 42 3.7 NE 4 7 2 4 1022.3 - 0.0
28/04:30am 6.2 3.6 -5.1 44 3.8 CALM 0 0 0 0 1022.4 - 0.0
28/04:00am 7.1 2.9 -4.0 45 3.9 NE 9 11 5 6 1022.4 - 0.0
28/03:30am 5.9 2.1 -6.0 42 3.9 E 6 7 3 4 1022.5 - 0.0
28/03:00am 6.0 1.6 -5.9 42 3.9 E 9 11 5 6 1022.5 1022.6 0.0
28/02:30am 7.2 2.9 -4.8 42 4.2 E 9 11 5 6 1022.8 - 0.0
28/02:00am 7.8 4.2 -4.0 43 4.2 SE 6 7 3 4 1023.0 - 0.0
28/01:30am 8.2 4.5 -4.2 41 4.4 ESE 6 7 3 4 1023.1 - 0.0
28/01:00am 7.9 5.3 -4.5 41 4.4 CALM 0 0 0 0 1023.1 - 0.0
28/12:30am 9.3 6.1 -3.9 39 4.8 E 4 7 2 4 1023.3 - 0.0
28/12:00am 9.2 5.0 -3.7 40 4.7 ENE 9 9 5 5 1023.4 1023.5 0.0
 
Date/Time
CST
Temp
°C
App
Temp
°C
Dew
Point
Rel
Hum
%
Delta-T
°C
Wind Press
QNH
hPa
Press
MSL
hPa
Rain
since 9 am
mm
Dir
 
Spd
km/h
Gust
km/h
Spd
kts
Gust
kts
27/11:30pm 8.1 4.4 -8.0 31 5.2 S 4 7 2 4 1023.6 - 0.0
27/11:00pm 10.4 6.8 -3.3 38 5.1 S 6 6 3 3 1023.9 - 0.0
27/10:30pm 10.5 7.2 -4.3 35 5.4 SSE 4 7 2 4 1023.9 - 0.0
27/10:00pm 11.8 7.6 -3.5 34 5.8 SW 9 9 5 5 1024.1 - 0.0
27/09:30pm 12.6 10.1 -3.6 32 6.2 CALM 0 0 0 0 1024.2 - 0.0
27/09:00pm 13.8 11.6 -1.8 34 6.2 CALM 0 0 0 0 1024.2 1024.3 0.0
27/08:30pm 13.6 11.2 -3.2 31 6.5 CALM 0 0 0 0 1024.4 - 0.0
27/08:00pm 15.9 13.7 -1.6 30 7.2 CALM 0 0 0 0 1024.4 - 0.0
27/07:30pm 16.6 14.5 -0.6 31 7.3 CALM 0 0 0 0 1024.2 - 0.0
27/07:00pm 15.8 12.5 -1.3 31 7.1 S 6 7 3 4 1023.8 - 0.0
27/06:30pm 16.5 14.2 -2.0 28 7.6 CALM 0 0 0 0 1023.3 - 0.0
27/06:00pm 18.3 16.2 -1.0 27 8.2 CALM 0 0 0 0 1022.9 1023.0 0.0
27/05:30pm 19.7 17.5 -1.4 24 9.0 CALM 0 0 0 0 1022.9 - 0.0
27/05:00pm 21.2 19.1 -0.7 23 9.7 CALM 0 0 0 0 1023.0 - 0.0
27/04:30pm 20.9 17.6 -1.0 23 9.6 SSE 6 13 3 7 1023.0 - 0.0
27/04:00pm 21.2 17.9 -1.3 22 9.8 ENE 6 9 3 5 1023.1 - 0.0
27/03:30pm 21.8 19.7 -0.8 22 10.0 CALM 0 0 0 0 1023.3 - 0.0
27/03:00pm 21.1 17.3 -0.8 23 9.6 ESE 9 13 5 7 1023.4 1023.5 0.0
27/02:30pm 21.6 18.2 -0.4 23 9.8 S 7 17 4 9 1023.6 - 0.0
27/02:00pm 21.6 18.8 -0.4 23 9.8 E 4 11 2 6 1023.9 - 0.0
27/01:30pm 21.1 18.0 0.3 25 9.3 S 6 13 3 7 1024.4 - 0.0
27/01:00pm 21.2 16.8 0.4 25 9.4 E 13 17 7 9 1025.1 - 0.0
27/12:30pm 21.2 18.5 0.4 25 9.4 E 4 11 2 6 1025.9 - 0.0
27/12:00pm 20.7 16.9 -0.6 24 9.3 NE 9 17 5 9 1026.5 1026.5 0.0
27/11:30am 19.9 16.6 -0.1 26 8.8 E 7 15 4 8 1027.0 - 0.0
27/11:00am 19.9 15.4 -0.1 26 8.8 NE 13 19 7 10 1027.3 - 0.0
27/10:30am 19.2 14.4 -2.4 23 9.0 ENE 13 19 7 10 1027.8 - 0.0
27/10:00am 17.4 11.5 -2.3 26 8.1 ENE 19 22 10 12 1028.0 - 0.0
27/09:30am 15.7 10.9 -2.3 29 7.3 ENE 13 19 7 10 1028.0 - 0.0
27/09:00am 13.2 9.4 -0.8 38 5.7 E 9 11 5 6 1027.7 1027.7 0.0
27/08:30am 10.7 7.2 -1.7 42 4.8 ENE 7 7 4 4 1027.8 - 0.0
27/08:00am 9.0 6.7 -2.0 46 4.2 CALM 0 0 0 0 1027.6 - 0.0
27/07:30am 6.1 3.7 -3.3 51 3.3 CALM 0 0 0 0 1027.3 - 0.0
27/07:00am 4.7 2.2 -3.6 55 2.9 CALM 0 0 0 0 1027.1 - 0.0
27/06:30am 5.5 3.1 -3.1 54 3.0 CALM 0 0 0 0 1026.9 - 0.0
27/06:00am 6.4 4.3 -0.6 61 2.6 CALM 0 0 0 0 1026.6 1026.6 0.0
27/05:30am 5.1 2.7 -3.4 54 3.0 CALM 0 0 0 0 1026.6 - 0.0
27/05:00am 5.9 3.6 -2.7 54 3.1 CALM 0 0 0 0 1026.5 - 0.0
27/04:30am 7.2 5.0 -1.7 53 3.3 CALM 0 0 0 0 1026.5 - 0.0
27/04:00am 6.5 4.2 -2.6 52 3.3 CALM 0 0 0 0 1026.6 - 0.0
27/03:30am 6.3 3.5 -3.1 51 3.4 SSE 2 6 1 3 1026.6 - 0.0
27/03:00am 7.7 4.4 -1.5 52 3.5 SSE 6 7 3 4 1026.7 1026.7 0.0
27/02:30am 7.5 3.8 -2.5 49 3.7 SE 7 11 4 6 1026.8 - 0.0
27/02:00am 7.3 3.8 -3.2 47 3.8 SSE 6 9 3 5 1026.7 - 0.0
27/01:30am 8.3 4.9 -2.3 47 4.0 S 6 7 3 4 1026.8 - 0.0
27/01:00am 8.4 5.0 -2.2 47 4.0 E 6 7 3 4 1027.0 - 0.0
27/12:30am 8.5 4.4 -2.7 45 4.2 ESE 9 15 5 8 1027.1 - 0.0
27/12:00am 9.6 6.3 -1.1 47 4.1 S 6 9 3 5 1027.1 1027.1 0.0
 
Date/Time
CST
Temp
°C
App
Temp
°C
Dew
Point
Rel
Hum
%
Delta-T
°C
Wind Press
QNH
hPa
Press
MSL
hPa
Rain
since 9 am
mm
Dir
 
Spd
km/h
Gust
km/h
Spd
kts
Gust
kts
26/11:30pm 9.4 5.9 -1.6 46 4.2 S 7 9 4 5 1027.5 - 0.0
26/11:00pm 8.8 5.0 -3.4 42 4.5 S 7 9 4 5 1027.6 - 0.0
26/10:30pm 9.7 7.4 -2.6 42 4.6 CALM 0 0 0 0 1027.5 - 0.0

Other Formats:

Comma delimited format used in spreadsheet applications
http://www.bom.gov.au/fwo/IDS60801/IDS60801.95481.axf

JavaScript Object Notation format (JSON) in row-major order
http://www.bom.gov.au/fwo/IDS60801/IDS60801.95481.json